Time;durP1;ratioP1;P1;durP2;ratioP2;P2;SDS_P1;SDS_P2;PMS_P1;PMS_P2;Temp;Humidity;BMP_temperature;BMP_pressure;BME280_temperature;BME280_humidity;BME280_pressure;Samples;Min_cycle;Max_cycle;Signal;HPM_P1;HPM_P2
2021/01/31 00:00:20;;;;;;;7.90;3.00;;;18.50;72.40;;;;;;4196377;28;20150;-71
2021/01/31 00:02:22;;;;;;;6.80;3.05;;;18.50;72.30;;;;;;4195365;28;20041;-71
2021/01/31 00:04:24;;;;;;;8.43;3.00;;;18.60;71.90;;;;;;4195123;28;20059;-71
2021/01/31 00:06:25;;;;;;;9.55;3.53;;;18.50;72.10;;;;;;4194528;28;20463;-71
2021/01/31 00:08:27;;;;;;;11.98;3.47;;;18.50;72.00;;;;;;4194636;28;20062;-71
2021/01/31 00:10:31;;;;;;;8.27;3.53;;;18.50;72.00;;;;;;4194853;28;20384;-72
2021/01/31 00:12:35;;;;;;;9.40;3.28;;;18.60;71.90;;;;;;4194491;28;20049;-71
2021/01/31 00:14:36;;;;;;;10.20;3.75;;;18.60;71.70;;;;;;4194446;28;20107;-70
2021/01/31 00:16:38;;;;;;;7.28;3.10;;;18.50;71.80;;;;;;4194138;28;21103;-71
2021/01/31 00:18:41;;;;;;;9.68;3.33;;;18.60;71.90;;;;;;4194350;28;20109;-72
2021/01/31 00:20:45;;;;;;;7.97;3.38;;;18.70;71.50;;;;;;4194380;28;20052;-71
2021/01/31 00:22:47;;;;;;;6.83;3.03;;;18.70;71.40;;;;;;4194464;28;20098;-71
2021/01/31 00:24:53;;;;;;;8.68;3.20;;;18.60;71.60;;;;;;4194413;28;20109;-71
2021/01/31 00:26:55;;;;;;;9.15;3.38;;;18.60;71.60;;;;;;4195946;28;20560;-72
2021/01/31 00:28:57;;;;;;;11.65;3.90;;;18.40;72.20;;;;;;4196231;28;20045;-69
2021/01/31 00:30:59;;;;;;;9.02;2.92;;;18.50;72.30;;;;;;4197061;28;20473;-71
2021/01/31 00:33:03;;;;;;;7.28;3.08;;;18.40;72.10;;;;;;4198201;28;20543;-71
2021/01/31 00:35:07;;;;;;;7.88;3.10;;;18.40;72.40;;;;;;4199504;28;20056;-71
2021/01/31 00:37:09;;;;;;;6.33;2.33;;;18.20;73.10;;;;;;4197983;28;20483;-71
2021/01/31 00:39:11;;;;;;;8.20;3.13;;;18.30;73.00;;;;;;4197413;28;20458;-72
2021/01/31 00:41:12;;;;;;;8.63;2.70;;;18.20;72.90;;;;;;4197517;28;20551;-69
2021/01/31 00:43:14;;;;;;;7.35;2.95;;;18.10;72.90;;;;;;4197747;28;20202;-69
2021/01/31 00:45:19;;;;;;;8.50;2.55;;;18.00;73.20;;;;;;4197463;28;20040;-72
2021/01/31 00:47:21;;;;;;;;;;;18.20;73.00;;;;;;4198143;28;20474;-71
2021/01/31 00:49:23;;;;;;;5.93;2.58;;;18.40;72.60;;;;;;4197273;28;20011;-73
2021/01/31 00:51:26;;;;;;;6.85;2.25;;;18.30;72.40;;;;;;4197156;28;20041;-72
2021/01/31 00:53:27;;;;;;;5.50;2.45;;;18.20;72.20;;;;;;4197424;28;20056;-71
2021/01/31 00:55:29;;;;;;;9.23;2.83;;;18.40;72.30;;;;;;4197350;28;20426;-71
2021/01/31 00:57:30;;;;;;;6.93;2.60;;;18.60;71.60;;;;;;4197083;28;20106;-71
2021/01/31 00:59:32;;;;;;;8.60;2.80;;;18.70;71.20;;;;;;4180705;28;20482;-71
2021/01/31 01:01:34;;;;;;;12.32;3.53;;;18.60;71.30;;;;;;4180751;28;20053;-72
2021/01/31 01:03:35;;;;;;;7.57;2.60;;;18.40;71.50;;;;;;4180955;28;20053;-71
2021/01/31 01:05:39;;;;;;;6.45;2.58;;;18.60;71.60;;;;;;4191224;28;20048;-71
2021/01/31 01:07:42;;;;;;;7.18;2.20;;;18.70;71.30;;;;;;4179267;28;20664;-71
2021/01/31 01:09:44;;;;;;;6.13;2.25;;;18.80;71.10;;;;;;4197521;28;20083;-72
2021/01/31 01:11:46;;;;;;;6.13;2.20;;;18.90;70.80;;;;;;4197445;28;20049;-73
2021/01/31 01:13:48;;;;;;;5.80;2.35;;;18.90;70.50;;;;;;4196945;28;20044;-71
2021/01/31 01:15:49;;;;;;;8.38;2.60;;;19.00;70.20;;;;;;4197444;28;20443;-72
2021/01/31 01:17:51;;;;;;;9.68;3.22;;;19.00;70.00;;;;;;4197320;28;20082;-71
2021/01/31 01:19:53;;;;;;;12.85;3.05;;;18.50;70.50;;;;;;4198272;28;20479;-71
2021/01/31 01:21:55;;;;;;;11.20;3.42;;;17.90;73.30;;;;;;4199759;28;20094;-72
2021/01/31 01:23:58;;;;;;;13.35;4.00;;;16.90;77.00;;;;;;4198945;28;20040;-71
2021/01/31 01:26:00;;;;;;;10.30;3.78;;;16.40;80.10;;;;;;4198552;28;20060;-72
2021/01/31 01:28:01;;;;;;;4.45;2.08;;;14.80;82.30;;;;;;4200393;28;20040;-71
2021/01/31 01:30:05;;;;;;;3.72;2.20;;;15.00;84.80;;;;;;4198960;28;20040;-71
2021/01/31 01:32:07;;;;;;;4.13;1.85;;;14.10;85.30;;;;;;4197683;28;20102;-71
2021/01/31 01:34:09;;;;;;;2.72;1.85;;;14.50;88.30;;;;;;4196584;28;20048;-71
2021/01/31 01:36:10;;;;;;;4.28;1.90;;;14.60;85.30;;;;;;4196903;28;20044;-71
2021/01/31 01:38:12;;;;;;;2.58;1.85;;;14.50;90.20;;;;;;4196653;28;20059;-72
2021/01/31 01:40:20;;;;;;;2.17;1.63;;;14.40;83.90;;;;;;4196776;28;20113;-74
2021/01/31 01:42:22;;;;;;;4.63;2.88;;;14.10;87.30;;;;;;4196784;28;20044;-71
2021/01/31 01:44:23;;;;;;;5.93;2.42;;;13.60;90.10;;;;;;4195586;28;20447;-75
2021/01/31 01:46:34;;;;;;;6.13;3.45;;;13.70;90.60;;;;;;4196570;28;20150;-71
2021/01/31 01:48:37;;;;;;;3.42;2.10;;;13.50;90.00;;;;;;4196705;28;20119;-71
2021/01/31 01:50:45;;;;;;;4.95;1.73;;;14.10;90.30;;;;;;4196321;28;20076;-71
2021/01/31 01:52:47;;;;;;;3.10;2.80;;;14.70;90.30;;;;;;4196179;28;20056;-70
2021/01/31 01:54:52;;;;;;;3.38;2.25;;;14.30;86.20;;;;;;4196536;28;20106;-70
2021/01/31 01:57:00;;;;;;;6.35;3.90;;;14.20;90.00;;;;;;4195968;28;20049;-70
2021/01/31 01:59:03;;;;;;;5.80;2.90;;;14.50;87.00;;;;;;4196428;28;20473;-70
2021/01/31 02:01:05;;;;;;;4.68;2.03;;;14.70;86.90;;;;;;4196358;28;20040;-71
2021/01/31 02:03:12;;;;;;;5.50;2.72;;;14.00;89.60;;;;;;4196454;28;20044;-70
2021/01/31 02:05:15;;;;;;;5.38;3.95;;;13.80;90.30;;;;;;4196360;28;20036;-70
2021/01/31 02:07:17;;;;;;;7.82;4.05;;;14.00;87.40;;;;;;4196411;28;20040;-70
2021/01/31 02:09:20;;;;;;;3.53;2.17;;;13.40;89.60;;;;;;4196126;28;20090;-72
2021/01/31 02:11:22;;;;;;;5.72;4.55;;;14.30;90.90;;;;;;4196133;28;20045;-70
2021/01/31 02:13:25;;;;;;;7.60;5.70;;;14.00;88.60;;;;;;4196583;28;20053;-70
2021/01/31 02:15:28;;;;;;;5.53;2.45;;;13.60;88.00;;;;;;4195895;28;20044;-69
2021/01/31 02:17:49;;;;;;;4.47;1.80;;;13.70;91.30;;;;;;4196068;28;20079;-70
2021/01/31 02:20:32;;;;;;;8.30;3.60;;;14.20;89.20;;;;;;4196379;28;20040;-69
2021/01/31 02:22:58;;;;;;;10.68;4.47;;;14.00;89.00;;;;;;4196716;28;20428;-71
2021/01/31 02:25:14;;;;;;;;;;;14.10;86.50;;;;;;4179478;28;20057;-69
2021/01/31 02:27:50;;;;;;;6.95;3.65;;;14.60;88.60;;;;;;4196484;28;19920;-70
2021/01/31 02:30:33;;;;;;;9.23;4.45;;;15.20;86.20;;;;;;4180126;28;20045;-71
2021/01/31 02:33:11;;;;;;;8.63;5.53;;;15.30;85.00;;;;;;4131453;28;20097;-70
2021/01/31 02:35:16;;;;;;;9.70;4.00;;;14.60;83.60;;;;;;4168192;28;20110;-73
2021/01/31 02:37:25;;;;;;;4.57;2.67;;;14.50;86.40;;;;;;4195992;28;20523;-72
2021/01/31 02:39:38;;;;;;;3.80;1.95;;;14.70;86.60;;;;;;4196456;28;20106;-72
2021/01/31 02:41:46;;;;;;;12.95;5.75;;;14.20;85.80;;;;;;4198573;28;20481;-72
2021/01/31 02:43:50;;;;;;;3.47;2.20;;;13.20;88.60;;;;;;4199043;28;20102;-74
2021/01/31 02:45:58;;;;;;;3.65;2.65;;;13.70;88.80;;;;;;4197838;28;20044;-71
2021/01/31 02:48:06;;;;;;;6.85;4.20;;;13.80;90.10;;;;;;4197880;28;20382;-73
2021/01/31 02:50:15;;;;;;;5.32;3.03;;;13.50;90.70;;;;;;4180345;28;20056;-70
2021/01/31 02:52:21;;;;;;;7.50;5.28;;;14.10;88.70;;;;;;4179311;28;20045;-71
2021/01/31 02:54:29;;;;;;;13.70;8.90;;;13.60;90.00;;;;;;4179050;28;20094;-73
2021/01/31 02:56:36;;;;;;;6.22;4.65;;;13.30;86.40;;;;;;4178784;28;20395;-73
2021/01/31 02:58:42;;;;;;;20.50;14.40;;;13.90;87.20;;;;;;4194906;28;20059;-70
2021/01/31 03:00:54;;;;;;;17.58;13.25;;;12.50;87.90;;;;;;4196047;28;20082;-72
2021/01/31 03:03:01;;;;;;;15.90;10.85;;;11.70;92.00;;;;;;4195413;28;20044;-72
2021/01/31 03:05:07;;;;;;;15.68;10.23;;;11.90;93.90;;;;;;4177571;28;20049;-71
2021/01/31 03:07:17;;;;;;;9.20;7.90;;;12.20;90.90;;;;;;4179400;28;20165;-70
2021/01/31 03:09:28;;;;;;;11.07;9.52;;;11.90;93.40;;;;;;4179822;28;20048;-70
2021/01/31 03:11:38;;;;;;;16.40;12.45;;;12.30;93.10;;;;;;4181116;28;20052;-72
2021/01/31 03:13:50;;;;;;;10.82;8.70;;;11.70;92.00;;;;;;4189078;28;20396;-69
2021/01/31 03:15:58;;;;;;;8.32;7.47;;;13.20;91.40;;;;;;4195686;28;20270;-70
2021/01/31 03:18:04;;;;;;;15.10;10.65;;;12.40;91.30;;;;;;4195795;28;20233;-69
2021/01/31 03:20:12;;;;;;;16.42;14.43;;;12.00;93.40;;;;;;4178354;28;20045;-72
2021/01/31 03:22:24;;;;;;;6.68;2.70;;;11.30;92.30;;;;;;4195722;28;20114;-73
2021/01/31 03:24:31;;;;;;;13.32;10.93;;;13.30;93.20;;;;;;4196339;28;20048;-69
2021/01/31 03:26:38;;;;;;;15.65;13.52;;;12.80;88.80;;;;;;4195738;28;20056;-71
2021/01/31 03:28:40;;;;;;;12.52;10.95;;;12.20;90.30;;;;;;4195184;28;20037;-70
2021/01/31 03:30:42;;;;;;;21.60;16.08;;;11.90;93.90;;;;;;4194830;28;20087;-70
2021/01/31 03:32:49;;;;;;;22.67;18.10;;;11.30;93.90;;;;;;4194898;28;20049;-71
2021/01/31 03:34:54;;;;;;;9.15;7.55;;;11.40;93.60;;;;;;4194874;28;20052;-69
2021/01/31 03:37:01;;;;;;;23.13;17.15;;;12.10;92.90;;;;;;4194934;28;20053;-75
2021/01/31 03:39:04;;;;;;;24.73;18.33;;;11.30;92.30;;;;;;4194807;28;20052;-69
2021/01/31 03:41:11;;;;;;;25.65;19.92;;;11.40;93.00;;;;;;4195142;28;20044;-70
2021/01/31 03:43:13;;;;;;;25.00;19.50;;;11.80;91.30;;;;;;4194463;28;20040;-71
2021/01/31 03:45:20;;;;;;;14.75;12.05;;;11.50;90.60;;;;;;4194568;28;20057;-70
2021/01/31 03:47:28;;;;;;;27.77;20.92;;;11.90;91.50;;;;;;4194700;28;20106;-71
2021/01/31 03:49:35;;;;;;;17.55;13.07;;;12.00;90.70;;;;;;4194742;28;20045;-71
2021/01/31 03:51:37;;;;;;;32.53;22.83;;;12.00;91.00;;;;;;4194783;28;20457;-72
2021/01/31 03:53:39;;;;;;;28.35;21.42;;;11.70;88.80;;;;;;4194635;28;20040;-71
2021/01/31 03:55:42;;;;;;;8.63;6.82;;;11.50;88.90;;;;;;4194441;28;20098;-70
2021/01/31 03:57:49;;;;;;;13.13;10.75;;;11.80;94.00;;;;;;4194492;28;20109;-73
2021/01/31 03:59:55;;;;;;;23.48;18.02;;;11.70;93.70;;;;;;4194765;28;20048;-71
2021/01/31 04:01:58;;;;;;;25.70;19.23;;;11.60;90.10;;;;;;4194778;28;20443;-71
2021/01/31 04:04:17;;;;;;;25.67;18.65;;;10.80;91.20;;;;;;4194987;28;20048;-74
2021/01/31 04:06:22;;;;;;;14.65;11.73;;;11.70;92.50;;;;;;4194393;28;20050;-70
2021/01/31 04:08:24;;;;;;;8.25;5.82;;;12.10;92.10;;;;;;4196914;28;20094;-72
2021/01/31 04:10:27;;;;;;;15.07;12.15;;;12.50;93.00;;;;;;4197720;28;20087;-73
2021/01/31 04:12:35;;;;;;;15.85;13.15;;;13.00;90.20;;;;;;4180253;28;20519;-71
2021/01/31 04:14:45;;;;;;;23.05;18.52;;;12.30;85.50;;;;;;4198095;28;20041;-70
2021/01/31 04:16:48;;;;;;;10.68;7.18;;;11.30;88.60;;;;;;4197934;28;20086;-71
2021/01/31 04:18:50;;;;;;;22.27;17.42;;;12.00;93.20;;;;;;4197826;28;20044;-71
2021/01/31 04:20:52;;;;;;;15.80;12.77;;;11.60;89.00;;;;;;4198533;28;20094;-73
2021/01/31 04:22:54;;;;;;;13.25;8.63;;;11.30;93.50;;;;;;4180225;28;20133;-71
2021/01/31 04:24:56;;;;;;;22.75;17.58;;;12.50;93.10;;;;;;4197501;28;20114;-70
2021/01/31 04:26:57;;;;;;;21.20;16.92;;;11.60;90.40;;;;;;4197633;28;20048;-74
2021/01/31 04:29:00;;;;;;;17.52;13.75;;;11.30;92.40;;;;;;4197678;28;20182;-71
2021/01/31 04:31:02;;;;;;;17.08;12.63;;;12.30;89.60;;;;;;4197682;28;20041;-70
2021/01/31 04:33:04;;;;;;;5.70;3.78;;;11.90;92.10;;;;;;4197290;28;20051;-71
2021/01/31 04:35:08;;;;;;;17.02;14.13;;;12.90;92.40;;;;;;4197374;28;20385;-71
2021/01/31 04:37:10;;;;;;;14.50;10.85;;;13.00;84.30;;;;;;4197166;28;20051;-71
2021/01/31 04:39:12;;;;;;;9.35;6.97;;;13.80;84.60;;;;;;4197389;28;20045;-70
2021/01/31 04:41:14;;;;;;;6.85;5.13;;;13.10;90.40;;;;;;4197315;28;20481;-70
2021/01/31 04:43:18;;;;;;;21.23;15.40;;;13.30;90.20;;;;;;4197402;28;20090;-72
2021/01/31 04:45:21;;;;;;;8.07;6.93;;;12.80;84.60;;;;;;4197702;28;20509;-71
2021/01/31 04:47:27;;;;;;;13.90;8.80;;;13.80;87.80;;;;;;4197106;28;20314;-71
2021/01/31 04:50:11;;;;;;;17.75;13.65;;;13.50;88.70;;;;;;4197171;28;20509;-71
2021/01/31 04:52:29;;;;;;;10.55;9.15;;;13.40;80.30;;;;;;4130861;28;20094;-74
2021/01/31 04:54:46;;;;;;;9.75;8.32;;;13.90;85.80;;;;;;4177221;28;20440;-70
2021/01/31 04:56:59;;;;;;;11.90;9.50;;;14.60;84.90;;;;;;4197110;28;20055;-70
2021/01/31 04:59:12;;;;;;;5.57;4.53;;;15.20;79.90;;;;;;4197150;28;20053;-71
2021/01/31 05:01:22;;;;;;;5.60;4.55;;;14.70;84.50;;;;;;4197281;28;20045;-70
2021/01/31 05:03:25;;;;;;;10.68;6.72;;;15.10;80.20;;;;;;4197110;28;20052;-70
2021/01/31 05:05:33;;;;;;;11.48;9.60;;;14.90;84.80;;;;;;4197046;28;20135;-70
2021/01/31 05:07:42;;;;;;;10.23;8.60;;;14.90;80.60;;;;;;4196959;28;20075;-70
2021/01/31 05:09:43;;;;;;;5.40;4.72;;;14.60;80.80;;;;;;4197106;28;20049;-73
2021/01/31 05:11:53;;;;;;;4.78;3.75;;;14.30;86.80;;;;;;4197858;28;20097;-70
2021/01/31 05:14:03;;;;;;;6.82;5.65;;;14.80;84.00;;;;;;4197826;28;20320;-74
2021/01/31 05:16:07;;;;;;;13.48;10.57;;;15.00;82.70;;;;;;4197727;28;20049;-71
2021/01/31 05:18:13;;;;;;;22.50;18.50;;;14.00;85.70;;;;;;4198648;28;20433;-74
2021/01/31 05:20:23;;;;;;;7.03;5.20;;;12.40;88.60;;;;;;4197922;28;20055;-75
2021/01/31 05:22:28;;;;;;;7.93;6.50;;;13.60;91.40;;;;;;4198017;28;20075;-73
2021/01/31 05:24:30;;;;;;;6.72;5.82;;;13.50;91.10;;;;;;4197110;28;20134;-72
2021/01/31 05:26:38;;;;;;;10.10;8.75;;;13.60;87.90;;;;;;4196628;28;20511;-72
2021/01/31 05:28:44;;;;;;;18.52;15.90;;;12.90;87.20;;;;;;4196778;28;20052;-69
2021/01/31 05:30:47;;;;;;;5.18;3.65;;;12.30;91.80;;;;;;4178903;28;20041;-69
2021/01/31 05:33:07;;;;;;;4.25;3.60;;;13.10;96.20;;;;;;4198688;28;20439;-74
2021/01/31 05:35:21;;;;;;;12.73;9.75;;;13.50;91.10;;;;;;4199386;28;20063;-72
2021/01/31 05:37:25;;;;;;;14.63;12.18;;;13.30;87.80;;;;;;4200224;28;20623;-70
2021/01/31 05:39:38;;;;;;;8.25;4.97;;;13.30;84.40;;;;;;4198996;28;20057;-70
2021/01/31 05:41:47;;;;;;;6.75;4.40;;;13.90;84.30;;;;;;4198157;28;20044;-70
2021/01/31 05:43:56;;;;;;;14.35;11.40;;;13.80;88.50;;;;;;4196723;28;20045;-73
2021/01/31 05:45:59;;;;;;;6.13;4.95;;;13.10;84.10;;;;;;4197382;28;20524;-71
2021/01/31 05:48:13;;;;;;;4.43;3.10;;;13.50;89.80;;;;;;4197173;28;20040;-75
2021/01/31 05:50:28;;;;;;;4.17;3.60;;;14.70;85.90;;;;;;4179994;28;20048;-74
2021/01/31 05:52:33;;;;;;;10.47;8.70;;;15.30;82.70;;;;;;4180096;28;20052;-71
2021/01/31 05:54:36;;;;;;;11.07;7.85;;;14.30;85.10;;;;;;4179774;28;20049;-70
2021/01/31 05:56:40;;;;;;;4.57;3.00;;;13.80;87.00;;;;;;4179706;28;20048;-72
2021/01/31 05:58:42;;;;;;;5.40;4.07;;;14.80;84.90;;;;;;4189352;28;20056;-69
2021/01/31 06:00:44;;;;;;;3.38;3.03;;;14.80;83.20;;;;;;4196405;28;20044;-70
2021/01/31 06:02:58;;;;;;;4.55;2.92;;;15.50;81.50;;;;;;4196492;28;20052;-70
2021/01/31 06:05:13;;;;;;;4.68;3.40;;;15.40;79.60;;;;;;4196658;28;20469;-70
2021/01/31 06:07:19;;;;;;;11.03;9.90;;;15.80;79.40;;;;;;4196762;28;20048;-69
2021/01/31 06:09:34;;;;;;;7.35;4.07;;;15.20;78.50;;;;;;4196603;28;20603;-70
2021/01/31 06:11:36;;;;;;;5.00;4.32;;;15.90;78.90;;;;;;4196713;28;20056;-70
2021/01/31 06:13:38;;;;;;;4.25;3.17;;;15.70;76.80;;;;;;4196781;28;20048;-73
2021/01/31 06:15:50;;;;;;;2.60;2.40;;;16.10;78.50;;;;;;4196245;28;20040;-70
2021/01/31 06:17:57;;;;;;;4.38;2.83;;;16.20;77.70;;;;;;4195726;28;20060;-72
2021/01/31 06:20:04;;;;;;;6.35;2.90;;;16.50;77.00;;;;;;4195733;28;20044;-70
2021/01/31 06:22:07;;;;;;;3.70;2.65;;;16.90;75.50;;;;;;4195573;28;20106;-73
2021/01/31 06:24:22;;;;;;;3.00;2.53;;;16.80;75.50;;;;;;4195524;28;20121;-71
2021/01/31 06:26:26;;;;;;;4.05;3.30;;;16.90;75.20;;;;;;4177924;28;20053;-69
2021/01/31 06:28:40;;;;;;;11.73;10.23;;;16.70;74.50;;;;;;4195649;28;20079;-70
2021/01/31 06:30:48;;;;;;;16.10;10.52;;;16.00;70.20;;;;;;4194931;28;20044;-70
2021/01/31 06:32:52;;;;;;;10.25;7.95;;;15.00;73.60;;;;;;4195768;28;20414;-71
2021/01/31 06:34:57;;;;;;;7.75;5.93;;;14.60;80.70;;;;;;4197367;28;20098;-70
2021/01/31 06:37:18;;;;;;;2.75;2.47;;;15.10;79.60;;;;;;4198307;28;20473;-72
2021/01/31 06:39:35;;;;;;;5.05;3.90;;;15.80;75.10;;;;;;4195536;28;20390;-69
2021/01/31 06:41:57;;;;;;;4.30;3.28;;;15.60;79.20;;;;;;4195508;28;20048;-69
2021/01/31 06:44:08;;;;;;;11.82;9.45;;;15.80;78.60;;;;;;4177419;28;20045;-70
2021/01/31 06:46:16;;;;;;;6.38;2.95;;;15.90;75.80;;;;;;4195453;28;20049;-70
2021/01/31 06:48:40;;;;;;;10.55;9.25;;;15.60;78.40;;;;;;4195234;28;20063;-71
2021/01/31 06:50:57;;;;;;;3.63;2.85;;;15.20;73.60;;;;;;4195362;28;20048;-71
2021/01/31 06:53:13;;;;;;;7.68;5.22;;;15.40;77.20;;;;;;4195324;28;20056;-70
2021/01/31 06:55:29;;;;;;;13.23;9.02;;;15.60;77.80;;;;;;4195296;28;20436;-70
2021/01/31 06:58:03;;;;;;;9.50;6.57;;;14.20;75.00;;;;;;4195028;28;20040;-71
2021/01/31 07:00:33;;;;;;;3.00;2.10;;;13.30;79.10;;;;;;4195562;28;20118;-70
2021/01/31 07:03:09;;;;;;;7.18;5.60;;;14.10;80.90;;;;;;4195930;28;20056;-71
2021/01/31 07:05:25;;;;;;;3.17;2.35;;;13.70;81.00;;;;;;4195764;28;20044;-70
2021/01/31 07:08:05;;;;;;;7.05;5.43;;;14.30;80.40;;;;;;4196052;28;20048;-70
2021/01/31 07:10:27;;;;;;;8.07;4.40;;;13.20;79.60;;;;;;4195704;28;20051;-70
2021/01/31 07:12:42;;;;;;;5.63;4.57;;;12.70;82.90;;;;;;4194962;28;20049;-70
2021/01/31 07:14:51;;;;;;;6.25;2.50;;;12.80;82.70;;;;;;4194916;28;20049;-69
2021/01/31 07:17:02;;;;;;;6.10;4.80;;;13.70;87.90;;;;;;4194793;28;20435;-70
2021/01/31 07:19:09;;;;;;;4.68;4.28;;;13.50;81.10;;;;;;4194709;28;20412;-70
2021/01/31 07:21:17;;;;;;;4.85;3.95;;;13.40;85.40;;;;;;4194908;28;20048;-70
2021/01/31 07:23:26;;;;;;;6.72;4.18;;;13.40;86.20;;;;;;4194732;28;20048;-70
2021/01/31 07:25:33;;;;;;;5.45;3.85;;;13.00;81.00;;;;;;4194514;28;20121;-70
2021/01/31 07:27:40;;;;;;;6.43;5.18;;;12.00;85.80;;;;;;4177149;28;20080;-71
2021/01/31 07:29:58;;;;;;;2.63;2.10;;;11.50;89.40;;;;;;4194586;28;20060;-71
2021/01/31 07:32:04;;;;;;;5.18;3.90;;;12.00;90.20;;;;;;4194570;28;20060;-70
2021/01/31 07:34:11;;;;;;;6.60;4.82;;;12.00;87.80;;;;;;4194845;28;20048;-69
2021/01/31 07:36:19;;;;;;;9.52;6.90;;;12.80;86.00;;;;;;4194602;28;20044;-74
2021/01/31 07:38:27;;;;;;;8.02;5.05;;;11.90;85.00;;;;;;4194388;28;20190;-71
2021/01/31 07:40:31;;;;;;;10.88;8.98;;;12.60;88.80;;;;;;4194658;28;20430;-71
2021/01/31 07:42:35;;;;;;;15.05;8.50;;;11.60;85.90;;;;;;4176064;28;20447;-70
2021/01/31 07:44:39;;;;;;;9.57;7.90;;;11.90;86.70;;;;;;4194317;28;20325;-70
2021/01/31 07:46:41;;;;;;;7.18;6.25;;;11.40;87.10;;;;;;4194509;28;20047;-72
2021/01/31 07:49:04;;;;;;;9.32;6.72;;;11.10;89.00;;;;;;4194634;28;20578;-69
2021/01/31 07:51:08;;;;;;;9.82;4.28;;;11.70;90.90;;;;;;4194575;28;20110;-69
2021/01/31 07:53:09;;;;;;;5.03;4.30;;;12.30;88.90;;;;;;4194565;28;20106;-70
2021/01/31 07:55:17;;;;;;;6.07;5.47;;;12.10;88.50;;;;;;4194735;28;20044;-69
2021/01/31 07:57:37;;;;;;;6.13;3.60;;;11.90;90.10;;;;;;4194253;28;20052;-69
2021/01/31 07:59:39;;;;;;;10.90;7.35;;;12.30;86.40;;;;;;4194028;28;20419;-71
2021/01/31 08:01:47;;;;;;;10.65;9.00;;;12.30;84.00;;;;;;4195187;28;20044;-71
2021/01/31 08:03:48;;;;;;;11.57;8.68;;;11.30;85.40;;;;;;4194884;28;20045;-71
2021/01/31 08:05:54;;;;;;;3.13;1.92;;;11.20;89.50;;;;;;4195378;28;20883;-69
2021/01/31 08:08:05;;;;;;;3.38;2.25;;;13.00;89.80;;;;;;4194881;28;20048;-69
2021/01/31 08:10:07;;;;;;;8.02;5.28;;;12.70;89.90;;;;;;4195292;28;20389;-71
2021/01/31 08:12:10;;;;;;;5.75;5.22;;;12.60;84.10;;;;;;4195086;28;20060;-69
2021/01/31 08:14:51;;;;;;;5.38;3.65;;;13.10;83.80;;;;;;4195551;28;20554;-71
2021/01/31 08:16:55;;;;;;;9.65;6.88;;;13.50;82.20;;;;;;4197983;28;20105;-71
2021/01/31 08:19:03;;;;;;;6.63;5.50;;;12.50;83.10;;;;;;4196446;28;20525;-69
2021/01/31 08:21:04;;;;;;;4.57;3.90;;;12.10;87.90;;;;;;4195138;28;20052;-70
2021/01/31 08:23:51;;;;;;;2.88;2.55;;;13.10;84.80;;;;;;4194608;28;20397;-70
2021/01/31 08:25:55;;;;;;;4.85;3.40;;;13.30;81.60;;;;;;4180131;28;20057;-70
2021/01/31 08:28:15;;;;;;;6.97;6.10;;;13.80;84.70;;;;;;4180767;28;20377;-71
2021/01/31 08:30:29;;;;;;;4.10;3.15;;;13.20;79.50;;;;;;4180775;28;20124;-73
2021/01/31 08:32:31;;;;;;;5.38;4.70;;;14.00;79.60;;;;;;4180575;28;20482;-70
2021/01/31 08:35:08;;;;;;;7.53;5.32;;;12.90;81.50;;;;;;4195588;28;20465;-70
2021/01/31 08:37:21;;;;;;;;;;;13.40;80.00;;;;;;4195520;28;20102;-70
2021/01/31 08:39:30;;;;;;;5.50;3.15;;;13.40;81.70;;;;;;4194273;28;19920;-70
2021/01/31 08:41:41;;;;;;;11.07;7.60;;;12.80;83.20;;;;;;4194445;28;20059;-69
2021/01/31 08:43:44;;;;;;;3.25;2.70;;;12.10;83.60;;;;;;4195030;28;20474;-71
2021/01/31 08:45:47;;;;;;;5.95;4.80;;;13.20;88.10;;;;;;4194631;28;20102;-70
2021/01/31 08:47:48;;;;;;;8.68;3.72;;;13.40;79.90;;;;;;4195340;28;20056;-69
2021/01/31 08:49:58;;;;;;;5.22;3.22;;;12.60;80.90;;;;;;4195595;28;20040;-73
2021/01/31 08:52:02;;;;;;;9.00;5.97;;;12.30;84.10;;;;;;4194712;28;20048;-71
2021/01/31 08:54:04;;;;;;;2.33;1.60;;;12.10;89.20;;;;;;4196135;28;20049;-70
2021/01/31 08:56:23;;;;;;;4.43;2.67;;;13.40;87.60;;;;;;4197041;28;20075;-70
2021/01/31 08:58:25;;;;;;;9.75;8.23;;;13.80;80.00;;;;;;4197636;28;20052;-70
2021/01/31 09:00:30;;;;;;;6.32;5.53;;;12.40;79.70;;;;;;4198396;28;20433;-69
2021/01/31 09:02:34;;;;;;;4.03;2.72;;;12.40;86.90;;;;;;4198291;28;20049;-73
2021/01/31 09:04:38;;;;;;;5.90;4.40;;;12.70;88.10;;;;;;4198906;28;20060;-69
2021/01/31 09:06:40;;;;;;;9.80;7.13;;;12.90;84.80;;;;;;4198813;28;20052;-71
2021/01/31 09:08:45;;;;;;;7.90;6.47;;;13.20;79.40;;;;;;4197952;28;20048;-70
2021/01/31 09:10:47;;;;;;;6.95;5.35;;;12.90;79.50;;;;;;4197042;28;20052;-71
2021/01/31 09:12:48;;;;;;;5.68;3.10;;;12.30;85.90;;;;;;4196756;28;20070;-69
2021/01/31 09:14:51;;;;;;;6.32;3.38;;;13.00;85.00;;;;;;4196566;28;20098;-69
2021/01/31 09:17:01;;;;;;;7.43;4.50;;;12.90;83.40;;;;;;4196884;28;20040;-69
2021/01/31 09:19:06;;;;;;;4.15;1.75;;;12.80;85.20;;;;;;4196545;28;20060;-70
2021/01/31 09:21:22;;;;;;;;;;;14.10;84.00;;;;;;4197552;28;20431;-71
2021/01/31 09:23:29;;;;;;;3.38;2.83;;;13.80;81.90;;;;;;4196791;28;19924;-69
2021/01/31 09:25:34;;;;;;;4.47;2.60;;;14.20;79.30;;;;;;4196501;28;20161;-70
2021/01/31 09:27:54;;;;;;;2.20;1.90;;;14.40;78.20;;;;;;4196668;28;20463;-70
2021/01/31 09:30:00;;;;;;;4.10;2.42;;;13.90;80.50;;;;;;4194139;28;20044;-69
2021/01/31 09:32:08;;;;;;;3.05;2.15;;;14.50;79.10;;;;;;4196509;28;20060;-70
2021/01/31 09:34:11;;;;;;;5.50;4.43;;;14.20;80.60;;;;;;4178858;28;20114;-71
2021/01/31 09:36:19;;;;;;;4.55;3.70;;;13.40;80.50;;;;;;4180280;28;20581;-69
2021/01/31 09:38:24;;;;;;;8.48;7.47;;;13.20;81.20;;;;;;4179780;28;20049;-70
2021/01/31 09:40:26;;;;;;;2.67;1.90;;;12.40;79.90;;;;;;4180269;28;20363;-69
2021/01/31 09:42:29;;;;;;;7.05;6.35;;;13.20;85.80;;;;;;4180298;28;20075;-70
2021/01/31 09:44:31;;;;;;;2.03;1.83;;;13.60;78.60;;;;;;4180487;28;20045;-70
2021/01/31 09:46:35;;;;;;;5.90;3.75;;;14.20;82.70;;;;;;4180923;28;20480;-73
2021/01/31 09:48:37;;;;;;;4.20;2.22;;;14.50;76.20;;;;;;4184825;28;20053;-70
2021/01/31 09:50:42;;;;;;;3.10;2.67;;;14.60;78.30;;;;;;4197569;28;20424;-70
2021/01/31 09:52:43;;;;;;;;;;;14.20;78.30;;;;;;4197646;28;20120;-69
2021/01/31 09:54:45;;;;;;;2.40;1.75;;;13.60;76.40;;;;;;4196718;28;19920;-69
2021/01/31 09:56:49;;;;;;;3.15;1.80;;;14.10;82.20;;;;;;4197256;28;20075;-69
2021/01/31 09:58:51;;;;;;;4.40;3.55;;;14.00;80.40;;;;;;4197986;28;20049;-71
2021/01/31 10:00:54;;;;;;;2.20;1.85;;;13.60;79.90;;;;;;4197372;28;20051;-73
2021/01/31 10:03:05;;;;;;;4.85;2.58;;;13.50;83.20;;;;;;4196436;28;20049;-70
2021/01/31 10:05:11;;;;;;;3.35;2.42;;;14.00;81.10;;;;;;4196067;28;20036;-71
2021/01/31 10:07:23;;;;;;;4.07;2.60;;;13.90;81.10;;;;;;4196492;28;20127;-71
2021/01/31 10:09:31;;;;;;;5.13;3.67;;;14.00;80.10;;;;;;4195796;28;20060;-69
2021/01/31 10:11:39;;;;;;;3.35;2.38;;;14.40;77.90;;;;;;4196238;28;20053;-70
2021/01/31 10:13:42;;;;;;;6.78;4.72;;;14.10;81.20;;;;;;4195836;28;20052;-69
2021/01/31 10:15:51;;;;;;;7.43;5.13;;;14.30;78.10;;;;;;4195981;28;20558;-70
2021/01/31 10:17:53;;;;;;;4.93;2.03;;;14.00;78.80;;;;;;4195948;28;20044;-71
2021/01/31 10:20:30;;;;;;;6.38;4.05;;;14.70;79.20;;;;;;4197069;28;20122;-72
2021/01/31 10:22:34;;;;;;;2.83;2.35;;;14.90;77.90;;;;;;4195878;28;20056;-70
2021/01/31 10:24:36;;;;;;;6.40;3.65;;;15.00;76.40;;;;;;4195673;28;20048;-70
2021/01/31 10:26:38;;;;;;;2.63;1.85;;;15.20;74.30;;;;;;4195897;28;20469;-70
2021/01/31 10:28:46;;;;;;;1.90;1.45;;;15.80;75.70;;;;;;4195598;28;20048;-70
2021/01/31 10:30:50;;;;;;;2.10;1.75;;;16.30;73.90;;;;;;4195508;28;20102;-72
2021/01/31 10:32:53;;;;;;;2.13;1.85;;;16.20;73.10;;;;;;4195837;28;20067;-71
2021/01/31 10:34:56;;;;;;;5.07;3.45;;;16.10;72.20;;;;;;4195601;28;20129;-69
2021/01/31 10:37:15;;;;;;;5.35;2.80;;;16.10;71.10;;;;;;4195575;28;20052;-70
2021/01/31 10:39:25;;;;;;;3.38;2.33;;;16.30;72.20;;;;;;4195298;28;20164;-70
2021/01/31 10:41:27;;;;;;;2.13;1.65;;;16.20;71.80;;;;;;4195513;28;20140;-71
2021/01/31 10:43:29;;;;;;;8.02;6.00;;;16.30;71.90;;;;;;4195383;28;20041;-70
2021/01/31 10:45:30;;;;;;;8.50;5.97;;;15.60;69.40;;;;;;4196506;28;20044;-71
2021/01/31 10:47:34;;;;;;;6.47;5.65;;;14.90;72.00;;;;;;4196601;28;20489;-70
2021/01/31 10:49:36;;;;;;;13.38;9.50;;;14.30;75.70;;;;;;4178783;28;20589;-71
2021/01/31 10:51:38;;;;;;;3.85;2.45;;;14.20;73.40;;;;;;4195602;28;20040;-71
2021/01/31 10:53:40;;;;;;;6.28;4.22;;;14.70;78.00;;;;;;4195481;28;20040;-71
2021/01/31 10:55:42;;;;;;;8.73;5.35;;;15.40;75.10;;;;;;4195729;28;20048;-71
2021/01/31 10:57:44;;;;;;;8.88;6.47;;;15.10;74.10;;;;;;4195584;28;20485;-70
2021/01/31 10:59:46;;;;;;;3.75;2.53;;;15.10;72.60;;;;;;4196590;28;20405;-70